• Join FlightAware (Why Join?)
  • Login
  • US Flag 
01:22AM EST


 

Airport Tracker/Info


-or-


 

Live Flight TrackerFlight Track Log ✈ NKS904 ✈ 06-May-2013 ✈ KDFW - KMCO

Flight Track Log - Related Links

Times and Time Zones

All times are in EDT time to prevent confusion due to time zone crossing. See the NKS904 flight status page for this flight to view local times or setup timezone preferences in your user account.

Time Position Orientation Groundspeed Altitude Reporting Facility
EDT Latitude Longitude Course Direction KTS MPH feet Rate Location/Type
12:30PM 32.9270 -97.0300 359° North 164 189 1,800  Level FlightAware
12:31PM 32.9430 -97.0260 12° North 189 217 2,100 1,080 Climbing FlightAware
12:31PM 32.9720 -97.0150 18° North 237 273 2,700 2,160 Climbing FlightAware
12:32PM 33.0040 -97.0000 21° North 250 288 4,300 3,120 Climbing FlightAware
12:32PM 33.0120 -96.9910 43° Northeast 256 295 4,800 3,360 Climbing FlightAware
12:32PM 33.0180 -96.9700 71° East 263 303 5,700 3,420 Climbing FlightAware
12:33PM 33.0150 -96.9250 95° East 273 314 7,400 2,940 Climbing FlightAware
12:33PM 33.0090 -96.8900 102° East 289 333 8,400 2,280 Climbing FlightAware
12:34PM 32.9880 -96.8460 120° Southeast 311 358 9,500 1,800 Climbing FlightAware
12:34PM 32.9600 -96.8030 128° Southeast 346 398 10,200 1,260 Climbing FlightAware
12:35PM 32.9230 -96.7890 162° South 367 422 10,700 2,040 Climbing FlightAware
12:35PM 32.8430 -96.7910 181° South 380 437 12,600 2,520 Climbing FlightAware
12:36PM 32.7720 -96.7930 181° South 385 443 14,300 2,460 Climbing FlightAware
12:37PM 32.7000 -96.7950 181° South 393 452 15,900 2,100 Climbing FlightAware
12:37PM 32.6140 -96.7990 182° South 408 470 17,300 2,100 Climbing FlightAware
12:38PM 32.5370 -96.8030 183° South 411 473 18,900 2,100 Climbing FlightAware
12:39PM 32.4630 -96.8070 183° South 420 483 20,100 1,800 Climbing FlightAware
12:39PM 32.3740 -96.8110 182° South 428 493 21,500 1,680 Climbing FlightAware
12:40PM 32.3060 -96.8140 182° South 434 499 22,400 1,020 Climbing FlightAware
12:41PM 32.2040 -96.7850 166° South 443 510 23,000 360 Climbing FlightAware
12:42PM 32.1260 -96.7550 162° South 442 509 23,000 540 Level FlightAware
12:42PM 32.0380 -96.7220 162° South 455 524 23,800 1,080 Climbing FlightAware
12:43PM 31.9580 -96.6910 162° South 463 533 24,600 1,200 Climbing FlightAware
12:43PM 31.9081 -96.6725 163° South 461 531 25,100 1,320 Climbing FlightAware ADS-B
12:44PM 31.7900 -96.6257 161° South 479 551 26,400 1,320 Climbing FlightAware ADS-B
12:45PM 31.7259 -96.5988 160° South 481 554 27,100 1,320 Climbing FlightAware ADS-B
12:45PM 31.6590 -96.5713 161° South 482 555 27,800 1,320 Climbing FlightAware ADS-B
12:46PM 31.5772 -96.5379 161° South 481 554 28,700 1,200 Climbing FlightAware ADS-B
12:46PM 31.5120 -96.5115 161° South 488 562 29,200 960 Climbing FlightAware ADS-B
12:47PM 31.4504 -96.4877 162° South 489 563 29,700 1,200 Climbing FlightAware ADS-B
12:47PM 31.3820 -96.4627 163° South 488 562 30,400 1,320 Climbing FlightAware ADS-B
12:48PM 31.3165 -96.4384 162° South 486 559 31,100 1,260 Climbing FlightAware ADS-B
12:48PM 31.2514 -96.4140 162° South 483 556 31,700 1,260 Climbing FlightAware ADS-B
12:49PM 31.1959 -96.3923 162° South 487 560 32,300 1,200 Climbing FlightAware ADS-B
12:49PM 31.1877 -96.3881 156° South 489 563 32,300 840 Level FlightAware ADS-B
12:49PM 31.1684 -96.3762 152° Southeast 495 570 32,500 1,020 Climbing FlightAware ADS-B
12:49PM 31.1536 -96.3648 147° Southeast 500 575 32,600 1,260 Climbing FlightAware ADS-B
12:50PM 31.0965 -96.3147 143° Southeast 499 574 33,300 1,200 Climbing FlightAware ADS-B
12:50PM 31.0394 -96.2654 144° Southeast 497 572 33,900 1,140 Climbing FlightAware ADS-B
12:51PM 30.9833 -96.2172 144° Southeast 493 567 34,500 1,080 Climbing FlightAware ADS-B
12:51PM 30.9266 -96.1686 144° Southeast 494 568 35,000 720 Climbing FlightAware ADS-B
12:51PM 30.9121 -96.1549 141° Southeast 499 574 35,000  Level FlightAware ADS-B
12:52PM 30.8852 -96.1212 133° Southeast 509 586 35,000  Level FlightAware ADS-B
12:52PM 30.8663 -96.0855 122° Southeast 511 588 35,000  Level FlightAware ADS-B
12:52PM 30.8617 -96.0741 115° Southeast 512 589 35,000  Level FlightAware ADS-B
12:52PM 30.8557 -96.0558 111° Southeast 512 589 35,000  Level FlightAware ADS-B
12:53PM 30.8375 -95.9763 105° East 510 587 35,000  Level FlightAware ADS-B
12:53PM 30.8190 -95.8967 105° East 508 585 35,000  Level FlightAware ADS-B
12:54PM 30.8002 -95.8174 105° East 508 585 35,000 360 Level FlightAware ADS-B
12:54PM 30.7814 -95.7385 105° East 510 587 35,400 600 Climbing FlightAware ADS-B
12:55PM 30.7624 -95.6585 105° East 514 592 35,600 540 Climbing FlightAware ADS-B
12:55PM 30.7422 -95.5733 105° East 516 594 36,000 840 Climbing FlightAware ADS-B
12:56PM 30.7228 -95.4922 106° East 514 592 36,500 600 Climbing FlightAware ADS-B
12:56PM 30.7007 -95.3996 105° East 520 598 36,700 420 Climbing FlightAware ADS-B
12:57PM 30.6810 -95.3178 106° East 521 600 37,000 240 Climbing FlightAware ADS-B
12:57PM 30.6610 -95.2346 106° East 519 597 37,000  Level FlightAware ADS-B
12:58PM 30.6415 -95.1538 106° East 520 598 37,000  Level FlightAware ADS-B
12:58PM 30.6216 -95.0719 106° East 520 598 37,000  Level FlightAware ADS-B
12:59PM 30.6013 -94.9889 106° East 522 601 37,000  Level FlightAware ADS-B
12:59PM 30.5805 -94.9046 106° East 522 601 37,000  Level FlightAware ADS-B
01:00PM 30.5607 -94.8238 106° East 522 601 37,000  Level FlightAware ADS-B
01:00PM 30.5405 -94.7426 106° East 521 600 37,000  Level FlightAware ADS-B
01:01PM 30.5207 -94.6617 106° East 521 600 37,000  Level FlightAware ADS-B
01:01PM 30.4998 -94.5777 106° East 521 600 37,000  Level FlightAware ADS-B
01:02PM 30.4796 -94.4963 106° East 523 602 37,000  Level FlightAware ADS-B
01:02PM 30.4594 -94.4157 106° East 522 601 37,000  Level FlightAware ADS-B
01:03PM 30.4383 -94.3317 106° East 522 601 37,000  Level FlightAware ADS-B
01:03PM 30.4178 -94.2502 106° East 522 601 37,000  Level FlightAware ADS-B
01:04PM 30.3969 -94.1676 106° East 522 601 37,000  Level FlightAware ADS-B
01:05PM 30.3750 -94.0799 106° East 522 601 37,000  Level FlightAware ADS-B
01:05PM 30.3545 -93.9992 106° East 522 601 37,000  Level FlightAware ADS-B
01:06PM 30.3341 -93.9188 106° East 522 601 37,000  Level FlightAware ADS-B
01:06PM 30.3133 -93.8373 106° East 522 601 37,000  Level FlightAware ADS-B
01:07PM 30.2921 -93.7546 107° East 523 602 37,000  Level FlightAware ADS-B
01:07PM 30.2704 -93.6699 107° East 523 602 37,000  Level FlightAware ADS-B
01:08PM 30.2496 -93.5891 107° East 524 603 37,000  Level FlightAware ADS-B
01:08PM 30.2286 -93.5082 107° East 524 603 37,000  Level FlightAware ADS-B
01:09PM 30.2078 -93.4279 107° East 524 603 37,000  Level FlightAware ADS-B
01:09PM 30.1842 -93.3370 107° East 525 604 37,000  Level FlightAware ADS-B
01:10PM 30.1585 -93.2377 107° East 525 604 37,000  Level FlightAware ADS-B
01:10PM 30.1376 -93.1576 107° East 524 603 37,000  Level FlightAware ADS-B
01:11PM 30.1161 -93.0755 107° East 524 603 37,000  Level FlightAware ADS-B
01:11PM 30.0947 -92.9941 107° East 525 604 37,000  Level FlightAware ADS-B
01:12PM 30.0726 -92.9104 107° East 526 605 37,000  Level FlightAware ADS-B
01:12PM 30.0498 -92.8234 107° East 526 605 37,000  Level FlightAware ADS-B
01:13PM 30.0274 -92.7387 107° East 527 606 37,000  Level FlightAware ADS-B
01:13PM 30.0057 -92.6570 107° East 528 608 37,000  Level FlightAware ADS-B
01:14PM 29.9842 -92.5762 107° East 528 608 37,000  Level FlightAware ADS-B
01:14PM 29.9620 -92.4933 107° East 528 608 37,000  Level FlightAware ADS-B
01:15PM 29.9404 -92.4126 107° East 529 609 37,000  Level FlightAware ADS-B
01:15PM 29.9178 -92.3286 107° East 529 609 37,000  Level FlightAware ADS-B
01:16PM 29.8862 -92.2112 107° East 529 609 37,000  Level FlightAware ADS-B
01:17PM 29.8615 -92.1198 107° East 529 609 37,000  Level FlightAware ADS-B
01:17PM 29.8392 -92.0379 107° East 529 609 37,000  Level FlightAware ADS-B
01:18PM 29.8169 -91.9556 107° East 529 609 37,000  Level FlightAware ADS-B
01:18PM 29.7949 -91.8746 107° East 529 609 37,000  Level FlightAware ADS-B
01:20PM 29.7318 -91.6451 108° East 529 609 37,000  Level FlightAware ADS-B
01:20PM 29.7005 -91.5317 108° East 529 609 37,000  Level FlightAware ADS-B
01:21PM 29.6778 -91.4497 108° East 528 608 37,000  Level FlightAware ADS-B
01:22PM 29.6325 -91.2867 108° East 528 608 37,000  Level FlightAware ADS-B
01:22PM 29.6269 -91.2647 95° East 526 605 37,000  Level Houston Center
01:23PM 29.6028 -91.1802 108° East 528 608 37,000  Level FlightAware ADS-B
01:24PM 29.5614 -91.0318 108° East 526 605 37,000  Level FlightAware ADS-B
01:24PM 29.5372 -90.9467 108° East 525 604 37,000 -60 Level Houston Center
01:25PM 29.4925 -90.7881 108° East 525 604 36,900  Descending Houston Center
01:27PM 29.4784 -90.6039 95° East  Level Estimated
01:28PM 29.5140 -90.4503 95° East  Level Estimated
01:29PM 29.3025 -90.1247 96° East 526 605 37,000  Level Houston Center
01:32PM 29.2818 -89.8149 94° East  Level Estimated
01:34PM 29.3958 -89.5873 95° East  Level Estimated
01:34PM 29.1078 -89.4544 94° East 537 618 37,000  Level Houston Center
01:35PM 29.3834 -89.4422 96° East  Level Estimated
01:35PM 29.0614 -89.2972 109° East 530 610 37,000  Level Houston Center
01:36PM 29.0150 -89.1383 108° East 528 608 37,000  Level Houston Center
01:37PM 28.9669 -88.9814 109° East 526 605 37,000  Level Houston Center
01:38PM 28.9117 -88.7933 109° East 525 604 37,000  Level Houston Center
01:39PM 29.2088 -88.7992 94° East  Level Estimated
01:40PM 28.8217 -88.4758 108° East 528 608 37,000  Level Houston Center
01:42PM 28.7344 -88.1594 107° East 526 605 37,000  Level Houston Center
01:43PM 28.6833 -87.9847 108° East 527 606 37,000  Level Houston Center
01:44PM 28.6389 -87.8256 108° East 528 608 37,000  Level Houston Center
01:45PM 28.5828 -87.6131 107° East 522 601 37,000  Level Jacksonville Center
01:47PM 28.5151 -87.3923 109° East  Level FlightAware Approximate
01:47PM 28.4925 -87.3175 109° East 531 611 37,000  Level Houston Center
01:48PM 28.4481 -87.1589 108° East 531 611 37,000  Level Houston Center
01:49PM 28.4022 -87.0003 108° East 529 609 37,000  Level Houston Center
01:50PM 28.3469 -86.8075 108° East 534 615 37,000  Level Jacksonville Center
01:51PM 28.2994 -86.6500 109° East 528 608 37,000  Level Jacksonville Center
01:58PM 27.9670 -85.5300 109° East 539 620 37,000  Level FlightAware
01:59PM 27.9310 -85.4140 109° East 536 617 37,000  Level FlightAware
02:00PM 27.8970 -85.2740 105° East 539 620 37,000  Level FlightAware
02:01PM 27.8870 -85.1470 95° East 542 624 37,000  Level FlightAware
02:01PM 27.8850 -85.0120 91° East 541 623 37,000  Level FlightAware
02:02PM 27.8840 -84.8970 91° East 540 621 37,000 -480 Level FlightAware
02:03PM 27.8820 -84.7840 91° East 537 618 36,400 -960 Descending FlightAware
02:03PM 27.8800 -84.6670 91° East 535 616 35,700 -1,020 Descending FlightAware
02:04PM 27.8770 -84.5460 92° East 533 613 35,000 -960 Descending FlightAware
02:05PM 27.8760 -84.4590 91° East 535 616 34,500 -960 Descending FlightAware
02:05PM 27.8730 -84.3180 91° East 531 611 33,700 -960 Descending FlightAware
02:06PM 27.8710 -84.2080 91° East 526 605 33,100 -540 Descending FlightAware
02:07PM 27.8690 -84.0980 91° East 528 608 33,000 -780 Descending FlightAware
02:08PM 27.8660 -83.9740 92° East 524 603 32,000 -1,500 Descending FlightAware
02:08PM 27.8640 -83.8650 91° East 513 590 30,900 -1,740 Descending FlightAware
02:09PM 27.8610 -83.7470 92° East 504 580 29,600 -1,860 Descending FlightAware
02:10PM 27.8590 -83.6410 91° East 493 567 28,300 -1,800 Descending FlightAware
02:10PM 27.8560 -83.5410 92° East 485 558 27,200 -1,740 Descending FlightAware
02:11PM 27.8530 -83.4290 92° East 474 545 25,900 -1,800 Descending FlightAware
02:12PM 27.8500 -83.3300 92° East 465 535 24,700 -1,800 Descending FlightAware
02:12PM 27.8470 -83.2230 92° East 454 522 23,400 -1,500 Descending FlightAware
02:13PM 27.8450 -83.1280 91° East 445 512 22,600 -1,080 Descending FlightAware
02:14PM 27.8420 -83.0370 92° East 440 506 22,000 -960 Descending FlightAware
02:15PM 27.8390 -82.9340 92° East 437 503 21,300 -960 Descending FlightAware
02:15PM 27.8360 -82.8320 92° East 431 496 20,600 -1,020 Descending FlightAware
02:16PM 27.8330 -82.7440 92° East 421 484 19,900 -960 Descending FlightAware
02:17PM 27.8300 -82.6500 92° East 418 481 19,300 -960 Descending FlightAware
02:17PM 27.8270 -82.5590 92° East 413 475 18,600 -1,080 Descending FlightAware
02:18PM 27.8360 -82.5010 80° East 407 468 18,100 -960 Descending FlightAware
02:19PM 27.8630 -82.4170 70° East 402 463 17,500 -900 Descending FlightAware
02:19PM 27.8850 -82.3430 71° East 402 463 16,900 -1,080 Descending FlightAware
02:20PM 27.9140 -82.2510 70° East 398 458 16,100 -1,080 Descending FlightAware
02:21PM 27.9370 -82.1760 71° East 393 452 15,500 -960 Descending FlightAware
02:21PM 27.9660 -82.0800 71° East 387 445 14,700 -1,020 Descending FlightAware
02:22PM 27.9920 -82.0040 69° East 381 438 14,000 -1,020 Descending FlightAware
02:23PM 28.0260 -81.9350 61° Northeast 381 438 13,400 -780 Descending FlightAware
02:23PM 28.0640 -81.8570 61° Northeast 375 432 12,900 -960 Descending FlightAware
02:24PM 28.0970 -81.7880 62° Northeast 365 420 12,100 -840 Descending FlightAware
02:25PM 28.1310 -81.7260 58° Northeast 338 389 11,800 -960 Descending FlightAware
02:26PM 28.1710 -81.6620 55° Northeast 335 386 10,800 -1,440 Descending FlightAware
02:26PM 28.2070 -81.6060 54° Northeast 329 379 9,800 -1,440 Descending FlightAware
02:26PM 28.2160 -81.5920 54° Northeast 329 379 9,600 -900 Descending FlightAware
02:27PM 28.2360 -81.5590 55° Northeast 325 374 9,300 -720 Descending FlightAware
02:27PM 28.2590 -81.5220 55° Northeast 318 366 9,000 -480 Descending FlightAware
02:28PM 28.2820 -81.4870 53° Northeast 325 374 8,900 -120 Descending FlightAware
02:28PM 28.3080 -81.4480 53° Northeast 326 375 8,900  Level FlightAware
02:28PM 28.3250 -81.4310 41° Northeast 299 344 8,900 240 Level FlightAware
02:29PM 28.3380 -81.4260 19° North 289 333 9,000  Climbing FlightAware
02:29PM 28.3920 -81.4240 North 229 264 8,900 -480 Descending FlightAware
02:30PM 28.4190 -81.4240 360° North 224 258 8,500 -1,140 Descending FlightAware
02:30PM 28.4520 -81.4240 360° North 230 265 7,900 -1,200 Descending FlightAware
02:30PM 28.4670 -81.4240 360° North 229 264 7,600 -1,500 Descending FlightAware
02:31PM 28.4980 -81.4240 360° North 214 246 6,800 -1,800 Descending FlightAware
02:31PM 28.5190 -81.4240 360° North 224 258 6,100 -1,980 Descending FlightAware
02:32PM 28.5520 -81.4240 360° North 215 247 5,000 -780 Descending FlightAware
02:33PM 28.5500 -81.4240 180° South 216 249 5,100 -660 Climbing FlightAware
02:33PM 28.5780 -81.4240 360° North 214 246 4,300 -1,680 Descending FlightAware
02:33PM 28.6010 -81.4130 23° Northeast 223 257 3,700 -1,380 Descending FlightAware
02:34PM 28.6070 -81.3940 70° East 220 253 3,300 -1,200 Descending FlightAware
02:34PM 28.6060 -81.3660 92° East 215 247 2,900 -780 Descending FlightAware
02:34PM 28.6000 -81.3540 120° Southeast 208 239 2,800 -420 Descending FlightAware
02:35PM 28.5880 -81.3450 147° Southeast 192 221 2,700 -600 Descending FlightAware
02:35PM 28.5720 -81.3410 168° South 174 200 2,500 -420 Descending FlightAware
02:35PM 28.5540 -81.3370 169° South 162 186 2,400 -480 Descending FlightAware
02:36PM 28.5340 -81.3330 170° South 158 182 2,100 -2,280 Descending FlightAware
02:36PM 28.4900 -81.3270 173° South 143 165 900 -2,280 Descending FlightAware
02:36PM 28.4740 -81.3270 180° South 128 147 600 -720 Descending FlightAware
02:37PM 28.4580 -81.3270 180° South 130 150 300 -720 Descending FlightAware